sensor_id;sensor_type;location;lat;lon;timestamp;P1;durP1;ratioP1;P2;durP2;ratioP2
11620;SDS011;5866;49.094;11.900;2023-07-31T00:01:06;10.75;;;9.88;;
11620;SDS011;5866;49.094;11.900;2023-07-31T00:03:33;11.20;;;10.50;;
11620;SDS011;5866;49.094;11.900;2023-07-31T00:06:01;10.95;;;10.00;;
11620;SDS011;5866;49.094;11.900;2023-07-31T00:08:30;10.25;;;9.55;;
11620;SDS011;5866;49.094;11.900;2023-07-31T00:10:58;10.38;;;8.77;;
11620;SDS011;5866;49.094;11.900;2023-07-31T00:13:25;11.30;;;10.38;;
11620;SDS011;5866;49.094;11.900;2023-07-31T00:15:53;12.13;;;11.02;;
11620;SDS011;5866;49.094;11.900;2023-07-31T00:18:20;11.68;;;10.57;;
11620;SDS011;5866;49.094;11.900;2023-07-31T00:20:48;13.02;;;11.95;;
11620;SDS011;5866;49.094;11.900;2023-07-31T00:23:15;15.15;;;14.02;;
11620;SDS011;5866;49.094;11.900;2023-07-31T00:25:44;17.15;;;15.85;;
11620;SDS011;5866;49.094;11.900;2023-07-31T00:28:12;15.88;;;14.88;;
11620;SDS011;5866;49.094;11.900;2023-07-31T00:30:40;14.60;;;13.30;;
11620;SDS011;5866;49.094;11.900;2023-07-31T00:33:07;12.48;;;11.68;;
11620;SDS011;5866;49.094;11.900;2023-07-31T00:35:35;11.55;;;10.65;;
11620;SDS011;5866;49.094;11.900;2023-07-31T00:38:02;10.45;;;9.60;;
11620;SDS011;5866;49.094;11.900;2023-07-31T00:40:34;12.02;;;11.02;;
11620;SDS011;5866;49.094;11.900;2023-07-31T00:43:03;11.80;;;10.82;;
11620;SDS011;5866;49.094;11.900;2023-07-31T00:45:31;10.93;;;10.23;;
11620;SDS011;5866;49.094;11.900;2023-07-31T00:47:59;11.40;;;10.50;;
11620;SDS011;5866;49.094;11.900;2023-07-31T00:50:27;11.38;;;10.48;;
11620;SDS011;5866;49.094;11.900;2023-07-31T00:52:56;11.05;;;10.15;;
11620;SDS011;5866;49.094;11.900;2023-07-31T00:55:23;14.13;;;13.07;;
11620;SDS011;5866;49.094;11.900;2023-07-31T00:57:51;16.83;;;15.60;;
11620;SDS011;5866;49.094;11.900;2023-07-31T01:00:23;20.45;;;19.27;;
11620;SDS011;5866;49.094;11.900;2023-07-31T01:02:50;28.33;;;26.65;;
11620;SDS011;5866;49.094;11.900;2023-07-31T01:05:19;25.15;;;23.35;;
11620;SDS011;5866;49.094;11.900;2023-07-31T01:07:59;27.58;;;25.77;;
11620;SDS011;5866;49.094;11.900;2023-07-31T01:10:33;26.10;;;24.33;;
11620;SDS011;5866;49.094;11.900;2023-07-31T01:13:07;26.80;;;25.05;;
11620;SDS011;5866;49.094;11.900;2023-07-31T01:15:36;21.98;;;20.65;;
11620;SDS011;5866;49.094;11.900;2023-07-31T01:18:04;20.70;;;19.38;;
11620;SDS011;5866;49.094;11.900;2023-07-31T01:20:32;20.92;;;19.55;;
11620;SDS011;5866;49.094;11.900;2023-07-31T01:23:17;19.38;;;18.02;;
11620;SDS011;5866;49.094;11.900;2023-07-31T01:26:04;13.35;;;12.48;;
11620;SDS011;5866;49.094;11.900;2023-07-31T01:28:40;11.00;;;10.30;;
11620;SDS011;5866;49.094;11.900;2023-07-31T01:31:17;9.98;;;9.18;;
11620;SDS011;5866;49.094;11.900;2023-07-31T01:33:48;8.00;;;7.32;;
11620;SDS011;5866;49.094;11.900;2023-07-31T01:36:17;8.05;;;7.50;;
11620;SDS011;5866;49.094;11.900;2023-07-31T01:38:45;8.15;;;7.47;;
11620;SDS011;5866;49.094;11.900;2023-07-31T01:41:16;8.77;;;7.85;;
11620;SDS011;5866;49.094;11.900;2023-07-31T01:43:43;7.63;;;6.97;;
11620;SDS011;5866;49.094;11.900;2023-07-31T01:46:11;8.70;;;7.93;;
11620;SDS011;5866;49.094;11.900;2023-07-31T01:48:39;8.48;;;7.70;;
11620;SDS011;5866;49.094;11.900;2023-07-31T01:51:06;10.02;;;9.18;;
11620;SDS011;5866;49.094;11.900;2023-07-31T01:53:34;8.90;;;8.07;;
11620;SDS011;5866;49.094;11.900;2023-07-31T01:56:02;8.48;;;7.88;;
11620;SDS011;5866;49.094;11.900;2023-07-31T01:58:31;9.35;;;8.63;;
11620;SDS011;5866;49.094;11.900;2023-07-31T02:00:58;8.93;;;8.15;;
11620;SDS011;5866;49.094;11.900;2023-07-31T02:03:26;8.40;;;7.68;;
11620;SDS011;5866;49.094;11.900;2023-07-31T02:05:54;9.20;;;8.32;;
11620;SDS011;5866;49.094;11.900;2023-07-31T02:08:21;9.07;;;8.27;;
11620;SDS011;5866;49.094;11.900;2023-07-31T02:10:49;8.52;;;7.82;;
11620;SDS011;5866;49.094;11.900;2023-07-31T02:13:16;8.57;;;7.88;;
11620;SDS011;5866;49.094;11.900;2023-07-31T02:15:46;8.35;;;7.65;;
11620;SDS011;5866;49.094;11.900;2023-07-31T02:18:13;11.80;;;10.80;;
11620;SDS011;5866;49.094;11.900;2023-07-31T02:20:41;12.18;;;11.38;;
11620;SDS011;5866;49.094;11.900;2023-07-31T02:23:09;14.38;;;13.27;;
11620;SDS011;5866;49.094;11.900;2023-07-31T02:25:36;18.17;;;16.95;;
11620;SDS011;5866;49.094;11.900;2023-07-31T02:28:04;24.42;;;22.63;;
11620;SDS011;5866;49.094;11.900;2023-07-31T02:30:31;23.35;;;21.90;;
11620;SDS011;5866;49.094;11.900;2023-07-31T02:33:00;20.85;;;19.45;;
11620;SDS011;5866;49.094;11.900;2023-07-31T02:35:28;19.48;;;18.15;;
11620;SDS011;5866;49.094;11.900;2023-07-31T02:37:55;19.15;;;17.58;;
11620;SDS011;5866;49.094;11.900;2023-07-31T02:40:23;22.38;;;20.98;;
11620;SDS011;5866;49.094;11.900;2023-07-31T02:42:51;26.30;;;24.80;;
11620;SDS011;5866;49.094;11.900;2023-07-31T02:45:18;24.60;;;23.13;;
11620;SDS011;5866;49.094;11.900;2023-07-31T02:47:46;21.13;;;19.35;;
11620;SDS011;5866;49.094;11.900;2023-07-31T02:50:15;19.00;;;17.80;;
11620;SDS011;5866;49.094;11.900;2023-07-31T02:52:42;10.77;;;9.88;;
11620;SDS011;5866;49.094;11.900;2023-07-31T02:55:10;9.02;;;8.07;;
11620;SDS011;5866;49.094;11.900;2023-07-31T02:57:37;7.40;;;6.80;;
11620;SDS011;5866;49.094;11.900;2023-07-31T03:00:05;8.13;;;7.32;;
11620;SDS011;5866;49.094;11.900;2023-07-31T03:02:34;6.88;;;6.32;;
11620;SDS011;5866;49.094;11.900;2023-07-31T03:05:02;9.18;;;8.25;;
11620;SDS011;5866;49.094;11.900;2023-07-31T03:07:31;5.95;;;5.45;;
11620;SDS011;5866;49.094;11.900;2023-07-31T03:09:58;7.57;;;5.00;;
11620;SDS011;5866;49.094;11.900;2023-07-31T03:12:26;8.38;;;4.95;;
11620;SDS011;5866;49.094;11.900;2023-07-31T03:14:54;6.30;;;5.65;;
11620;SDS011;5866;49.094;11.900;2023-07-31T03:17:22;7.43;;;6.68;;
11620;SDS011;5866;49.094;11.900;2023-07-31T03:19:49;7.70;;;6.93;;
11620;SDS011;5866;49.094;11.900;2023-07-31T03:22:17;8.48;;;7.85;;
11620;SDS011;5866;49.094;11.900;2023-07-31T03:24:46;11.00;;;10.18;;
11620;SDS011;5866;49.094;11.900;2023-07-31T03:27:13;14.48;;;13.55;;
11620;SDS011;5866;49.094;11.900;2023-07-31T03:29:41;19.75;;;18.52;;
11620;SDS011;5866;49.094;11.900;2023-07-31T03:32:09;26.83;;;25.02;;
11620;SDS011;5866;49.094;11.900;2023-07-31T03:34:36;27.05;;;25.30;;
11620;SDS011;5866;49.094;11.900;2023-07-31T03:37:04;25.83;;;24.13;;
11620;SDS011;5866;49.094;11.900;2023-07-31T03:39:32;26.17;;;24.48;;
11620;SDS011;5866;49.094;11.900;2023-07-31T03:42:01;28.70;;;26.88;;
11620;SDS011;5866;49.094;11.900;2023-07-31T03:44:28;28.08;;;26.25;;
11620;SDS011;5866;49.094;11.900;2023-07-31T03:46:56;25.95;;;24.33;;
11620;SDS011;5866;49.094;11.900;2023-07-31T03:49:24;26.98;;;25.27;;
11620;SDS011;5866;49.094;11.900;2023-07-31T03:51:51;26.85;;;25.20;;
11620;SDS011;5866;49.094;11.900;2023-07-31T03:54:19;27.30;;;25.60;;
11620;SDS011;5866;49.094;11.900;2023-07-31T03:56:46;26.52;;;24.75;;
11620;SDS011;5866;49.094;11.900;2023-07-31T03:59:15;25.10;;;23.50;;
11620;SDS011;5866;49.094;11.900;2023-07-31T04:01:43;29.40;;;27.50;;
11620;SDS011;5866;49.094;11.900;2023-07-31T04:04:11;26.95;;;25.17;;
11620;SDS011;5866;49.094;11.900;2023-07-31T04:06:38;25.30;;;23.58;;
11620;SDS011;5866;49.094;11.900;2023-07-31T04:09:06;17.58;;;16.48;;
11620;SDS011;5866;49.094;11.900;2023-07-31T04:11:34;13.57;;;12.15;;
11620;SDS011;5866;49.094;11.900;2023-07-31T04:14:01;10.00;;;7.60;;
11620;SDS011;5866;49.094;11.900;2023-07-31T04:16:30;9.02;;;8.43;;
11620;SDS011;5866;49.094;11.900;2023-07-31T04:18:58;14.23;;;13.13;;
11620;SDS011;5866;49.094;11.900;2023-07-31T04:21:25;19.52;;;18.15;;
11620;SDS011;5866;49.094;11.900;2023-07-31T04:23:53;22.80;;;21.30;;
11620;SDS011;5866;49.094;11.900;2023-07-31T04:26:22;20.48;;;19.02;;
11620;SDS011;5866;49.094;11.900;2023-07-31T04:28:49;11.55;;;10.55;;
11620;SDS011;5866;49.094;11.900;2023-07-31T04:31:17;8.65;;;7.95;;
11620;SDS011;5866;49.094;11.900;2023-07-31T04:33:46;17.20;;;15.98;;
11620;SDS011;5866;49.094;11.900;2023-07-31T04:36:14;8.50;;;7.82;;
11620;SDS011;5866;49.094;11.900;2023-07-31T04:38:41;7.32;;;5.38;;
11620;SDS011;5866;49.094;11.900;2023-07-31T04:41:09;3.97;;;3.45;;
11620;SDS011;5866;49.094;11.900;2023-07-31T04:43:36;3.22;;;2.17;;
11620;SDS011;5866;49.094;11.900;2023-07-31T04:46:05;6.07;;;2.67;;
11620;SDS011;5866;49.094;11.900;2023-07-31T04:48:33;3.35;;;3.00;;
11620;SDS011;5866;49.094;11.900;2023-07-31T04:51:02;4.25;;;3.88;;
11620;SDS011;5866;49.094;11.900;2023-07-31T04:53:29;4.65;;;4.35;;
11620;SDS011;5866;49.094;11.900;2023-07-31T04:55:57;4.65;;;4.25;;
11620;SDS011;5866;49.094;11.900;2023-07-31T04:58:25;5.10;;;3.47;;
11620;SDS011;5866;49.094;11.900;2023-07-31T05:00:52;3.88;;;3.10;;
11620;SDS011;5866;49.094;11.900;2023-07-31T05:03:20;4.00;;;3.60;;
11620;SDS011;5866;49.094;11.900;2023-07-31T05:05:47;3.40;;;2.92;;
11620;SDS011;5866;49.094;11.900;2023-07-31T05:08:16;2.60;;;2.40;;
11620;SDS011;5866;49.094;11.900;2023-07-31T05:10:44;2.22;;;2.00;;
11620;SDS011;5866;49.094;11.900;2023-07-31T05:13:12;4.78;;;2.50;;
11620;SDS011;5866;49.094;11.900;2023-07-31T05:15:40;4.38;;;2.35;;
11620;SDS011;5866;49.094;11.900;2023-07-31T05:18:08;3.53;;;2.40;;
11620;SDS011;5866;49.094;11.900;2023-07-31T05:20:35;4.20;;;2.40;;
11620;SDS011;5866;49.094;11.900;2023-07-31T05:23:03;2.38;;;2.17;;
11620;SDS011;5866;49.094;11.900;2023-07-31T05:25:32;5.88;;;2.60;;
11620;SDS011;5866;49.094;11.900;2023-07-31T05:28:00;3.03;;;2.28;;
11620;SDS011;5866;49.094;11.900;2023-07-31T05:30:29;3.28;;;2.60;;
11620;SDS011;5866;49.094;11.900;2023-07-31T05:32:57;3.38;;;2.80;;
11620;SDS011;5866;49.094;11.900;2023-07-31T05:35:24;3.70;;;2.70;;
11620;SDS011;5866;49.094;11.900;2023-07-31T05:37:52;2.70;;;2.50;;
11620;SDS011;5866;49.094;11.900;2023-07-31T05:40:19;5.50;;;5.00;;
11620;SDS011;5866;49.094;11.900;2023-07-31T05:42:48;6.30;;;5.35;;
11620;SDS011;5866;49.094;11.900;2023-07-31T05:45:16;7.10;;;6.60;;
11620;SDS011;5866;49.094;11.900;2023-07-31T05:47:44;5.35;;;4.85;;
11620;SDS011;5866;49.094;11.900;2023-07-31T05:50:11;7.65;;;7.15;;
11620;SDS011;5866;49.094;11.900;2023-07-31T05:52:40;5.97;;;5.47;;
11620;SDS011;5866;49.094;11.900;2023-07-31T05:55:08;8.57;;;7.97;;
11620;SDS011;5866;49.094;11.900;2023-07-31T05:57:36;6.20;;;5.60;;
11620;SDS011;5866;49.094;11.900;2023-07-31T06:00:05;6.60;;;6.00;;
11620;SDS011;5866;49.094;11.900;2023-07-31T06:02:34;7.25;;;5.30;;
11620;SDS011;5866;49.094;11.900;2023-07-31T06:05:03;4.25;;;3.25;;
11620;SDS011;5866;49.094;11.900;2023-07-31T06:07:32;3.08;;;2.75;;
11620;SDS011;5866;49.094;11.900;2023-07-31T06:10:00;3.97;;;3.03;;
11620;SDS011;5866;49.094;11.900;2023-07-31T06:12:29;3.80;;;3.22;;
11620;SDS011;5866;49.094;11.900;2023-07-31T06:14:57;4.97;;;4.53;;
11620;SDS011;5866;49.094;11.900;2023-07-31T06:17:26;7.60;;;5.13;;
11620;SDS011;5866;49.094;11.900;2023-07-31T06:19:54;6.47;;;5.88;;
11620;SDS011;5866;49.094;11.900;2023-07-31T06:22:21;6.95;;;6.53;;
11620;SDS011;5866;49.094;11.900;2023-07-31T06:24:49;7.63;;;7.03;;
11620;SDS011;5866;49.094;11.900;2023-07-31T06:27:16;6.93;;;6.43;;
11620;SDS011;5866;49.094;11.900;2023-07-31T06:29:44;7.43;;;6.90;;
11620;SDS011;5866;49.094;11.900;2023-07-31T06:32:12;5.70;;;5.32;;
11620;SDS011;5866;49.094;11.900;2023-07-31T06:34:41;5.22;;;4.68;;
11620;SDS011;5866;49.094;11.900;2023-07-31T06:37:09;4.15;;;3.85;;
11620;SDS011;5866;49.094;11.900;2023-07-31T06:39:36;4.40;;;4.00;;
11620;SDS011;5866;49.094;11.900;2023-07-31T06:42:05;3.40;;;3.10;;
11620;SDS011;5866;49.094;11.900;2023-07-31T06:44:33;4.47;;;3.33;;
11620;SDS011;5866;49.094;11.900;2023-07-31T06:47:01;3.33;;;2.33;;
11620;SDS011;5866;49.094;11.900;2023-07-31T06:49:28;2.90;;;2.70;;
11620;SDS011;5866;49.094;11.900;2023-07-31T06:51:58;4.65;;;2.90;;
11620;SDS011;5866;49.094;11.900;2023-07-31T06:54:26;3.88;;;3.50;;
11620;SDS011;5866;49.094;11.900;2023-07-31T06:56:53;8.48;;;7.88;;
11620;SDS011;5866;49.094;11.900;2023-07-31T06:59:21;9.48;;;8.85;;
11620;SDS011;5866;49.094;11.900;2023-07-31T07:01:48;8.00;;;7.50;;
11620;SDS011;5866;49.094;11.900;2023-07-31T07:04:16;7.85;;;7.35;;
11620;SDS011;5866;49.094;11.900;2023-07-31T07:06:44;7.15;;;6.47;;
11620;SDS011;5866;49.094;11.900;2023-07-31T07:09:13;5.57;;;5.07;;
11620;SDS011;5866;49.094;11.900;2023-07-31T07:11:40;5.22;;;4.10;;
11620;SDS011;5866;49.094;11.900;2023-07-31T07:14:08;4.72;;;4.10;;
11620;SDS011;5866;49.094;11.900;2023-07-31T07:16:36;4.68;;;3.63;;
11620;SDS011;5866;49.094;11.900;2023-07-31T07:19:04;4.10;;;3.28;;
11620;SDS011;5866;49.094;11.900;2023-07-31T07:21:32;3.50;;;3.20;;
11620;SDS011;5866;49.094;11.900;2023-07-31T07:23:59;3.95;;;3.35;;
11620;SDS011;5866;49.094;11.900;2023-07-31T07:26:28;3.03;;;2.83;;
11620;SDS011;5866;49.094;11.900;2023-07-31T07:28:56;3.67;;;3.20;;
11620;SDS011;5866;49.094;11.900;2023-07-31T07:31:26;3.95;;;3.58;;
11620;SDS011;5866;49.094;11.900;2023-07-31T07:33:54;4.53;;;4.13;;
11620;SDS011;5866;49.094;11.900;2023-07-31T07:36:23;4.05;;;3.58;;
11620;SDS011;5866;49.094;11.900;2023-07-31T07:38:50;6.18;;;4.10;;
11620;SDS011;5866;49.094;11.900;2023-07-31T07:41:18;4.65;;;4.28;;
11620;SDS011;5866;49.094;11.900;2023-07-31T07:43:47;4.68;;;4.13;;
11620;SDS011;5866;49.094;11.900;2023-07-31T07:46:14;4.60;;;3.95;;
11620;SDS011;5866;49.094;11.900;2023-07-31T07:48:42;5.40;;;5.00;;
11620;SDS011;5866;49.094;11.900;2023-07-31T07:51:10;5.85;;;5.25;;
11620;SDS011;5866;49.094;11.900;2023-07-31T07:53:37;6.72;;;6.25;;
11620;SDS011;5866;49.094;11.900;2023-07-31T07:56:05;5.32;;;4.85;;
11620;SDS011;5866;49.094;11.900;2023-07-31T07:58:32;4.60;;;4.20;;
11620;SDS011;5866;49.094;11.900;2023-07-31T08:01:01;4.40;;;4.00;;
11620;SDS011;5866;49.094;11.900;2023-07-31T08:03:29;6.10;;;3.83;;
11620;SDS011;5866;49.094;11.900;2023-07-31T08:05:57;4.82;;;3.70;;
11620;SDS011;5866;49.094;11.900;2023-07-31T08:08:25;5.22;;;3.50;;
11620;SDS011;5866;49.094;11.900;2023-07-31T08:10:53;5.13;;;4.60;;
11620;SDS011;5866;49.094;11.900;2023-07-31T08:13:20;4.88;;;4.45;;
11620;SDS011;5866;49.094;11.900;2023-07-31T08:15:48;5.63;;;5.13;;
11620;SDS011;5866;49.094;11.900;2023-07-31T08:18:17;6.47;;;5.95;;
11620;SDS011;5866;49.094;11.900;2023-07-31T08:20:45;6.38;;;5.78;;
11620;SDS011;5866;49.094;11.900;2023-07-31T08:23:12;8.32;;;7.45;;
11620;SDS011;5866;49.094;11.900;2023-07-31T08:25:40;8.63;;;7.97;;
11620;SDS011;5866;49.094;11.900;2023-07-31T08:28:08;8.65;;;8.00;;
11620;SDS011;5866;49.094;11.900;2023-07-31T08:30:35;10.00;;;6.30;;
11620;SDS011;5866;49.094;11.900;2023-07-31T08:33:03;7.43;;;6.80;;
11620;SDS011;5866;49.094;11.900;2023-07-31T08:35:32;8.23;;;7.43;;
11620;SDS011;5866;49.094;11.900;2023-07-31T08:38:00;8.02;;;7.53;;
11620;SDS011;5866;49.094;11.900;2023-07-31T08:40:28;7.88;;;7.28;;
11620;SDS011;5866;49.094;11.900;2023-07-31T08:42:55;7.65;;;7.05;;
11620;SDS011;5866;49.094;11.900;2023-07-31T08:45:28;6.28;;;5.78;;
11620;SDS011;5866;49.094;11.900;2023-07-31T08:47:56;5.43;;;5.00;;
11620;SDS011;5866;49.094;11.900;2023-07-31T08:50:24;6.05;;;5.55;;
11620;SDS011;5866;49.094;11.900;2023-07-31T08:52:53;5.18;;;4.70;;
11620;SDS011;5866;49.094;11.900;2023-07-31T08:55:24;6.28;;;4.82;;
11620;SDS011;5866;49.094;11.900;2023-07-31T08:57:52;4.63;;;4.32;;
11620;SDS011;5866;49.094;11.900;2023-07-31T09:00:19;5.90;;;4.05;;
11620;SDS011;5866;49.094;11.900;2023-07-31T09:02:51;4.95;;;3.63;;
11620;SDS011;5866;49.094;11.900;2023-07-31T09:05:23;4.93;;;4.50;;
11620;SDS011;5866;49.094;11.900;2023-07-31T09:07:55;5.32;;;3.83;;
11620;SDS011;5866;49.094;11.900;2023-07-31T09:10:23;4.22;;;3.80;;
11620;SDS011;5866;49.094;11.900;2023-07-31T09:12:51;4.13;;;3.72;;
11620;SDS011;5866;49.094;11.900;2023-07-31T09:15:19;4.75;;;4.35;;
11620;SDS011;5866;49.094;11.900;2023-07-31T09:18:03;5.25;;;4.57;;
11620;SDS011;5866;49.094;11.900;2023-07-31T09:20:32;6.43;;;4.63;;
11620;SDS011;5866;49.094;11.900;2023-07-31T09:23:06;6.95;;;4.43;;
11620;SDS011;5866;49.094;11.900;2023-07-31T09:25:35;6.30;;;4.50;;
11620;SDS011;5866;49.094;11.900;2023-07-31T09:28:04;5.60;;;5.10;;
11620;SDS011;5866;49.094;11.900;2023-07-31T09:30:43;6.88;;;5.20;;
11620;SDS011;5866;49.094;11.900;2023-07-31T09:33:13;6.82;;;5.68;;
11620;SDS011;5866;49.094;11.900;2023-07-31T09:35:41;6.32;;;5.75;;
11620;SDS011;5866;49.094;11.900;2023-07-31T09:38:11;8.00;;;7.03;;
11620;SDS011;5866;49.094;11.900;2023-07-31T09:40:40;6.57;;;5.97;;
11620;SDS011;5866;49.094;11.900;2023-07-31T09:43:09;5.95;;;5.45;;
11620;SDS011;5866;49.094;11.900;2023-07-31T09:45:38;6.88;;;5.03;;
11620;SDS011;5866;49.094;11.900;2023-07-31T09:48:08;6.05;;;5.53;;
11620;SDS011;5866;49.094;11.900;2023-07-31T09:50:37;5.80;;;4.50;;
11620;SDS011;5866;49.094;11.900;2023-07-31T09:53:05;4.80;;;4.32;;
11620;SDS011;5866;49.094;11.900;2023-07-31T09:55:34;7.82;;;4.75;;
11620;SDS011;5866;49.094;11.900;2023-07-31T09:58:03;5.00;;;4.60;;
11620;SDS011;5866;49.094;11.900;2023-07-31T10:00:32;5.57;;;4.80;;
11620;SDS011;5866;49.094;11.900;2023-07-31T10:03:00;4.53;;;4.22;;
11620;SDS011;5866;49.094;11.900;2023-07-31T10:05:33;5.50;;;4.28;;
11620;SDS011;5866;49.094;11.900;2023-07-31T10:08:02;5.25;;;4.75;;
11620;SDS011;5866;49.094;11.900;2023-07-31T10:10:31;4.22;;;3.83;;
11620;SDS011;5866;49.094;11.900;2023-07-31T10:13:00;6.22;;;4.68;;
11620;SDS011;5866;49.094;11.900;2023-07-31T10:15:29;5.43;;;4.85;;
11620;SDS011;5866;49.094;11.900;2023-07-31T10:17:57;4.82;;;4.47;;
11620;SDS011;5866;49.094;11.900;2023-07-31T10:20:26;6.28;;;4.93;;
11620;SDS011;5866;49.094;11.900;2023-07-31T10:22:55;4.32;;;3.90;;
11620;SDS011;5866;49.094;11.900;2023-07-31T10:25:24;4.05;;;3.75;;
11620;SDS011;5866;49.094;11.900;2023-07-31T10:27:53;4.18;;;3.78;;
11620;SDS011;5866;49.094;11.900;2023-07-31T10:30:24;3.78;;;3.42;;
11620;SDS011;5866;49.094;11.900;2023-07-31T10:32:55;4.53;;;4.13;;
11620;SDS011;5866;49.094;11.900;2023-07-31T10:35:24;4.07;;;3.80;;
11620;SDS011;5866;49.094;11.900;2023-07-31T10:37:52;5.30;;;3.95;;
11620;SDS011;5866;49.094;11.900;2023-07-31T10:40:23;5.45;;;4.38;;
11620;SDS011;5866;49.094;11.900;2023-07-31T10:42:53;5.38;;;4.10;;
11620;SDS011;5866;49.094;11.900;2023-07-31T10:45:25;4.53;;;3.40;;
11620;SDS011;5866;49.094;11.900;2023-07-31T10:47:58;4.53;;;3.65;;
11620;SDS011;5866;49.094;11.900;2023-07-31T10:50:28;4.05;;;3.75;;
11620;SDS011;5866;49.094;11.900;2023-07-31T10:52:59;3.92;;;3.63;;
11620;SDS011;5866;49.094;11.900;2023-07-31T10:55:28;4.85;;;3.22;;
11620;SDS011;5866;49.094;11.900;2023-07-31T10:58:04;4.97;;;3.53;;
11620;SDS011;5866;49.094;11.900;2023-07-31T11:00:36;4.88;;;3.90;;
11620;SDS011;5866;49.094;11.900;2023-07-31T11:03:05;5.10;;;3.70;;
11620;SDS011;5866;49.094;11.900;2023-07-31T11:05:42;4.13;;;3.83;;
11620;SDS011;5866;49.094;11.900;2023-07-31T11:08:12;4.72;;;4.13;;
11620;SDS011;5866;49.094;11.900;2023-07-31T11:10:40;4.22;;;3.83;;
11620;SDS011;5866;49.094;11.900;2023-07-31T11:13:08;4.40;;;2.95;;
11620;SDS011;5866;49.094;11.900;2023-07-31T11:15:37;4.07;;;3.45;;
11620;SDS011;5866;49.094;11.900;2023-07-31T11:18:04;3.70;;;3.45;;
11620;SDS011;5866;49.094;11.900;2023-07-31T11:20:34;4.20;;;3.30;;
11620;SDS011;5866;49.094;11.900;2023-07-31T11:23:04;4.05;;;3.60;;
11620;SDS011;5866;49.094;11.900;2023-07-31T11:25:34;3.65;;;3.35;;
11620;SDS011;5866;49.094;11.900;2023-07-31T11:28:03;4.43;;;3.33;;
11620;SDS011;5866;49.094;11.900;2023-07-31T11:30:32;3.47;;;3.17;;
11620;SDS011;5866;49.094;11.900;2023-07-31T11:33:02;3.78;;;3.17;;
11620;SDS011;5866;49.094;11.900;2023-07-31T11:35:31;4.82;;;3.63;;
11620;SDS011;5866;49.094;11.900;2023-07-31T11:38:00;4.45;;;4.05;;
11620;SDS011;5866;49.094;11.900;2023-07-31T11:40:27;3.40;;;3.20;;
11620;SDS011;5866;49.094;11.900;2023-07-31T11:42:58;3.60;;;3.30;;
11620;SDS011;5866;49.094;11.900;2023-07-31T11:45:31;4.05;;;3.08;;
11620;SDS011;5866;49.094;11.900;2023-07-31T11:48:02;3.88;;;3.08;;
11620;SDS011;5866;49.094;11.900;2023-07-31T11:50:30;3.35;;;2.75;;
11620;SDS011;5866;49.094;11.900;2023-07-31T11:53:02;5.20;;;4.15;;
11620;SDS011;5866;49.094;11.900;2023-07-31T11:55:35;4.10;;;3.70;;
11620;SDS011;5866;49.094;11.900;2023-07-31T11:58:03;4.20;;;3.90;;
11620;SDS011;5866;49.094;11.900;2023-07-31T12:00:31;3.88;;;3.58;;
11620;SDS011;5866;49.094;11.900;2023-07-31T12:02:59;4.13;;;3.72;;
11620;SDS011;5866;49.094;11.900;2023-07-31T12:05:28;5.35;;;4.20;;
11620;SDS011;5866;49.094;11.900;2023-07-31T12:07:57;6.75;;;3.92;;
11620;SDS011;5866;49.094;11.900;2023-07-31T12:10:28;4.20;;;3.80;;
11620;SDS011;5866;49.094;11.900;2023-07-31T12:12:56;5.57;;;3.70;;
11620;SDS011;5866;49.094;11.900;2023-07-31T12:15:28;4.00;;;3.60;;
11620;SDS011;5866;49.094;11.900;2023-07-31T12:18:06;4.45;;;3.75;;
11620;SDS011;5866;49.094;11.900;2023-07-31T12:20:39;3.35;;;3.05;;
11620;SDS011;5866;49.094;11.900;2023-07-31T12:23:12;3.92;;;3.35;;
11620;SDS011;5866;49.094;11.900;2023-07-31T12:25:41;3.63;;;3.33;;
11620;SDS011;5866;49.094;11.900;2023-07-31T12:28:08;4.50;;;3.03;;
11620;SDS011;5866;49.094;11.900;2023-07-31T12:30:39;3.45;;;2.80;;
11620;SDS011;5866;49.094;11.900;2023-07-31T12:33:13;3.50;;;3.30;;
11620;SDS011;5866;49.094;11.900;2023-07-31T12:35:44;5.07;;;3.17;;
11620;SDS011;5866;49.094;11.900;2023-07-31T12:38:12;3.40;;;3.10;;
11620;SDS011;5866;49.094;11.900;2023-07-31T12:40:41;4.07;;;3.78;;
11620;SDS011;5866;49.094;11.900;2023-07-31T12:43:09;4.18;;;3.25;;
11620;SDS011;5866;49.094;11.900;2023-07-31T12:45:36;3.75;;;3.42;;
11620;SDS011;5866;49.094;11.900;2023-07-31T12:48:04;4.03;;;3.40;;
11620;SDS011;5866;49.094;11.900;2023-07-31T12:50:32;3.78;;;3.47;;
11620;SDS011;5866;49.094;11.900;2023-07-31T12:53:04;5.78;;;4.28;;
11620;SDS011;5866;49.094;11.900;2023-07-31T12:55:32;4.55;;;4.18;;
11620;SDS011;5866;49.094;11.900;2023-07-31T12:58:00;4.78;;;3.92;;
11620;SDS011;5866;49.094;11.900;2023-07-31T13:00:28;4.47;;;4.13;;
11620;SDS011;5866;49.094;11.900;2023-07-31T13:02:56;6.60;;;4.25;;
11620;SDS011;5866;49.094;11.900;2023-07-31T13:05:24;5.50;;;4.35;;
11620;SDS011;5866;49.094;11.900;2023-07-31T13:07:51;5.40;;;4.57;;
11620;SDS011;5866;49.094;11.900;2023-07-31T13:10:21;6.22;;;4.40;;
11620;SDS011;5866;49.094;11.900;2023-07-31T13:12:49;4.97;;;4.40;;
11620;SDS011;5866;49.094;11.900;2023-07-31T13:15:17;4.95;;;4.47;;
11620;SDS011;5866;49.094;11.900;2023-07-31T13:17:45;6.38;;;5.07;;
11620;SDS011;5866;49.094;11.900;2023-07-31T13:20:13;4.47;;;4.07;;
11620;SDS011;5866;49.094;11.900;2023-07-31T13:22:41;5.03;;;4.63;;
11620;SDS011;5866;49.094;11.900;2023-07-31T13:25:12;5.35;;;4.32;;
11620;SDS011;5866;49.094;11.900;2023-07-31T13:27:41;5.22;;;4.82;;
11620;SDS011;5866;49.094;11.900;2023-07-31T13:30:08;5.05;;;4.28;;
11620;SDS011;5866;49.094;11.900;2023-07-31T13:32:36;4.78;;;4.38;;
11620;SDS011;5866;49.094;11.900;2023-07-31T13:35:05;5.13;;;4.72;;
11620;SDS011;5866;49.094;11.900;2023-07-31T13:37:34;4.88;;;4.40;;
11620;SDS011;5866;49.094;11.900;2023-07-31T13:40:02;5.18;;;4.78;;
11620;SDS011;5866;49.094;11.900;2023-07-31T13:42:31;5.25;;;4.75;;
11620;SDS011;5866;49.094;11.900;2023-07-31T13:45:00;5.75;;;5.00;;
11620;SDS011;5866;49.094;11.900;2023-07-31T13:47:32;6.70;;;4.93;;
11620;SDS011;5866;49.094;11.900;2023-07-31T13:50:00;6.63;;;5.05;;
11620;SDS011;5866;49.094;11.900;2023-07-31T13:52:28;5.72;;;5.28;;
11620;SDS011;5866;49.094;11.900;2023-07-31T13:54:56;5.57;;;5.07;;
11620;SDS011;5866;49.094;11.900;2023-07-31T13:57:23;6.22;;;5.50;;
11620;SDS011;5866;49.094;11.900;2023-07-31T13:59:51;6.15;;;5.65;;
11620;SDS011;5866;49.094;11.900;2023-07-31T14:02:20;5.90;;;5.40;;
11620;SDS011;5866;49.094;11.900;2023-07-31T14:04:47;5.68;;;5.13;;
11620;SDS011;5866;49.094;11.900;2023-07-31T14:07:15;6.07;;;5.40;;
11620;SDS011;5866;49.094;11.900;2023-07-31T14:09:43;5.43;;;4.97;;
11620;SDS011;5866;49.094;11.900;2023-07-31T14:12:11;6.00;;;5.43;;
11620;SDS011;5866;49.094;11.900;2023-07-31T14:14:57;5.45;;;5.03;;
11620;SDS011;5866;49.094;11.900;2023-07-31T14:17:26;5.70;;;5.20;;
11620;SDS011;5866;49.094;11.900;2023-07-31T14:19:54;5.25;;;4.82;;
11620;SDS011;5866;49.094;11.900;2023-07-31T14:22:27;4.80;;;4.40;;
11620;SDS011;5866;49.094;11.900;2023-07-31T14:24:56;4.35;;;3.95;;
11620;SDS011;5866;49.094;11.900;2023-07-31T14:27:23;5.45;;;4.90;;
11620;SDS011;5866;49.094;11.900;2023-07-31T14:29:51;5.22;;;4.72;;
11620;SDS011;5866;49.094;11.900;2023-07-31T14:32:18;4.95;;;4.40;;
11620;SDS011;5866;49.094;11.900;2023-07-31T14:34:47;5.90;;;5.28;;
11620;SDS011;5866;49.094;11.900;2023-07-31T14:37:15;5.25;;;4.78;;
11620;SDS011;5866;49.094;11.900;2023-07-31T14:39:42;4.95;;;4.55;;
11620;SDS011;5866;49.094;11.900;2023-07-31T14:42:10;4.90;;;4.50;;
11620;SDS011;5866;49.094;11.900;2023-07-31T14:44:38;5.60;;;5.10;;
11620;SDS011;5866;49.094;11.900;2023-07-31T14:47:05;5.50;;;5.10;;
11620;SDS011;5866;49.094;11.900;2023-07-31T14:49:33;6.05;;;4.38;;
11620;SDS011;5866;49.094;11.900;2023-07-31T14:52:02;5.43;;;4.93;;